Terminal Aerodrome Forecast
Issued by NWS

Home | Current Version | Previous Version | Text Only | Print | Product List | Glossary On
Versions: 1 2 3 4 5 6 7 8 9 10 11 12 13
641
FTUS46 KSEW 301120
TAFCLM
TAF
KCLM 301120Z 3012/0112 27010KT P6SM SCT015 BKN030
      TEMPO 3012/3015 BKN015 BKN030
     FM301700 28012G20KT P6SM SCT030 BKN040
     FM010000 30012G20KT P6SM SCT050 BKN200
     FM010600 28008KT P6SM SCT080 OVC150
     FM011000 26005KT P6SM BKN050 OVC080=

USA.gov is the U.S. government's official web portal to all federal, state and local government web resources and services.